Eagle Tampa — S6NK6 — position and weather

sailwx.info

Track history (hours):
 
Tides and Currents Weather Stations Pressure Air Temp Water Temp Dewpoint Dewpoint Depression Visibility Wind Speed Wind Dir Waves Ship Positions

Eagle Tampa

Last reported at 2014-Sep-30 03:19 UTC. Time now 2014-Sep-30 10:24 UTC.
Position N 29°21' W 094°45'.

Length 247 m; draft 8.5 m.

Type: Tanker. MMSI: 563936000.

Date/timePositionNaut miles runAvg speedWind from/ knotsBaromVisibWave heightAir tempDewpointWater temp
2014-Sep-30 03:19N 29°21' W 094°45'7 9.6
2014-Sep-30 02:33N 29°23' W 094°53'1 0.0
2014-Sep-28 13:12N 29°22' W 094°53'0 0.1
2014-Sep-28 12:30N 29°22' W 094°53'3 3.0
2014-Sep-28 11:32N 29°22' W 094°50'  
2014-Sep-24 15:11N 29°21' W 094°42'910.5
2014-Sep-24 14:21N 29°26' W 094°50'911.2
2014-Sep-24 13:33N 29°34' W 094°55'1010.0
2014-Sep-24 12:33N 29°42' W 095°01'5 5.4
2014-Sep-24 11:33N 29°44' W 095°07'0 0.0
2014-Sep-23 23:27N 29°44' W 095°08'0 0.0
2014-Sep-23 22:33N 29°44' W 095°08'0 0.0
2014-Sep-23 21:03N 29°44' W 095°08'0 0.0
2014-Sep-23 19:30N 29°44' W 095°08'0 0.0
2014-Sep-23 18:27N 29°44' W 095°08'0 0.0
2014-Sep-23 17:28N 29°44' W 095°08'0 0.0
2014-Sep-23 15:21N 29°44' W 095°08'0 0.0
2014-Sep-23 14:27N 29°44' W 095°08'0 0.0
2014-Sep-22 22:21N 29°44' W 095°08'0 0.0
2014-Sep-22 16:33N 29°44' W 095°08'0 0.0
2014-Sep-22 15:33N 29°44' W 095°08'0 0.0
2014-Sep-22 14:33N 29°44' W 095°08'0 0.0
2014-Sep-22 13:33N 29°44' W 095°08'0 0.0
2014-Sep-22 12:33N 29°44' W 095°08'0 0.0
2014-Sep-22 11:33N 29°44' W 095°08'0 0.0
2014-Sep-22 10:33N 29°44' W 095°08'0 0.0
2014-Sep-22 09:33N 29°44' W 095°08'0 0.0
2014-Sep-22 08:33N 29°44' W 095°08'0 0.0
2014-Sep-22 07:33N 29°44' W 095°08'0 0.0
2014-Sep-22 06:33N 29°44' W 095°08'0 0.0
2014-Sep-22 05:33N 29°44' W 095°08'0 0.0
2014-Sep-22 04:33N 29°44' W 095°08'0 0.0
2014-Sep-22 03:33N 29°44' W 095°08'0 0.0
2014-Sep-22 02:33N 29°44' W 095°08'0 0.0
2014-Sep-22 01:33N 29°44' W 095°08'0 0.0
2014-Sep-22 00:33N 29°44' W 095°08'0 0.2
2014-Sep-21 23:33N 29°44' W 095°08'3 3.4
2014-Sep-21 22:33N 29°45' W 095°04'6 6.0
2014-Sep-21 21:33N 29°40' W 094°59'1010.3
2014-Sep-21 20:33N 29°31' W 094°53'  
Track history (hours):
 
Tides and Currents Weather Stations Pressure Air Temp Water Temp Dewpoint Dewpoint Depression Visibility Wind Speed Wind Dir Waves Ship Positions

Eagle Tampa

Last reported at 2014-Sep-30 03:19 UTC. Time now 2014-Sep-30 10:24 UTC.
Position N 29°21' W 094°45'.

Length 247 m; draft 8.5 m.

Type: Tanker. MMSI: 563936000.

Date/timePositionNaut miles runAvg speedWind from/ knotsBaromVisibWave heightAir tempDewpointWater temp
2014-Sep-30 03:19N 29°21' W 094°45'7 9.6
2014-Sep-30 02:33N 29°23' W 094°53'1 0.0
2014-Sep-28 13:12N 29°22' W 094°53'0 0.1
2014-Sep-28 12:30N 29°22' W 094°53'3 3.0
2014-Sep-28 11:32N 29°22' W 094°50'  
2014-Sep-24 15:11N 29°21' W 094°42'910.5
2014-Sep-24 14:21N 29°26' W 094°50'911.2
2014-Sep-24 13:33N 29°34' W 094°55'1010.0
2014-Sep-24 12:33N 29°42' W 095°01'5 5.4
2014-Sep-24 11:33N 29°44' W 095°07'0 0.0
2014-Sep-23 23:27N 29°44' W 095°08'0 0.0
2014-Sep-23 22:33N 29°44' W 095°08'0 0.0
2014-Sep-23 21:03N 29°44' W 095°08'0 0.0
2014-Sep-23 19:30N 29°44' W 095°08'0 0.0
2014-Sep-23 18:27N 29°44' W 095°08'0 0.0
2014-Sep-23 17:28N 29°44' W 095°08'0 0.0
2014-Sep-23 15:21N 29°44' W 095°08'0 0.0
2014-Sep-23 14:27N 29°44' W 095°08'0 0.0
2014-Sep-22 22:21N 29°44' W 095°08'0 0.0
2014-Sep-22 16:33N 29°44' W 095°08'0 0.0
2014-Sep-22 15:33N 29°44' W 095°08'0 0.0
2014-Sep-22 14:33N 29°44' W 095°08'0 0.0
2014-Sep-22 13:33N 29°44' W 095°08'0 0.0
2014-Sep-22 12:33N 29°44' W 095°08'0 0.0
2014-Sep-22 11:33N 29°44' W 095°08'0 0.0
2014-Sep-22 10:33N 29°44' W 095°08'0 0.0
2014-Sep-22 09:33N 29°44' W 095°08'0 0.0
2014-Sep-22 08:33N 29°44' W 095°08'0 0.0
2014-Sep-22 07:33N 29°44' W 095°08'0 0.0
2014-Sep-22 06:33N 29°44' W 095°08'0 0.0
2014-Sep-22 05:33N 29°44' W 095°08'0 0.0
2014-Sep-22 04:33N 29°44' W 095°08'0 0.0
2014-Sep-22 03:33N 29°44' W 095°08'0 0.0
2014-Sep-22 02:33N 29°44' W 095°08'0 0.0
2014-Sep-22 01:33N 29°44' W 095°08'0 0.0
2014-Sep-22 00:33N 29°44' W 095°08'0 0.2
2014-Sep-21 23:33N 29°44' W 095°08'3 3.4
2014-Sep-21 22:33N 29°45' W 095°04'6 6.0
2014-Sep-21 21:33N 29°40' W 094°59'1010.3
2014-Sep-21 20:33N 29°31' W 094°53'  

Dump ship's entire track history